Hollis, Oklahoma
Current Conditions -  °F | °C
As of 10:15 AM on Thursday 29 Jan 2015 (Local Time) from KAXS Reporting Station
Clear Clear  
Wind Chill: 53°   Ceiling: Unl
Heat Index: 53°   Visibility: 10mi
Dew Point: 33°   Wind: 24mph
Humidity: 47%   Direction: 10°N
Pressure: 30.43"   Gusts: 30mph
Location:  34.69°N, 99.91°W
Report Text: KAXS 291615Z AUTO 01021G26KT 10SM CLR 12/01 A3043 RMK AO2 T01160007
Loading
Personal Weather Stations






























Interactive Weather Map New forecast layout! Learn more

10-Day Weather Forecast

Advertisements
Track Severe Weather on mobile